Time;durP1;ratioP1;P1;durP2;ratioP2;P2;SDS_P1;SDS_P2;PMS_P1;PMS_P2;Temp;Humidity;BMP_temperature;BMP_pressure;BME280_temperature;BME280_humidity;BME280_pressure;Samples;Min_cycle;Max_cycle;Signal;HPM_P1;HPM_P2
2023/08/12 00:00:24;;;;;;;1.67;0.65;;;;;;;19.70;100.00;100723.31;4733618;30;20056;-77
2023/08/12 00:03:09;;;;;;;0.95;0.40;;;;;;;19.71;100.00;100724.94;4721878;30;20048;-78
2023/08/12 00:05:56;;;;;;;2.38;0.50;;;;;;;19.68;100.00;100722.84;4734673;30;20040;-78
2023/08/12 00:08:42;;;;;;;0.55;0.32;;;;;;;19.69;100.00;100727.28;4734384;30;20044;-78
2023/08/12 00:11:27;;;;;;;3.00;0.50;;;;;;;19.71;100.00;100727.75;4756599;30;20048;-78
2023/08/12 00:14:13;;;;;;;0.63;0.50;;;;;;;19.70;100.00;100725.31;4745272;30;20044;-78
2023/08/12 00:16:59;;;;;;;1.05;0.50;;;;;;;19.69;100.00;100721.66;4732474;30;20101;-78
2023/08/12 00:19:45;;;;;;;1.75;0.57;;;;;;;19.68;100.00;100720.03;4745278;30;20046;-78
2023/08/12 00:22:31;;;;;;;0.75;0.40;;;;;;;19.66;100.00;100705.44;4745104;30;20027;-78
2023/08/12 00:25:17;;;;;;;5.60;0.50;;;;;;;19.66;100.00;100716.72;4735979;30;20490;-77
2023/08/12 00:28:03;;;;;;;2.72;0.55;;;;;;;19.63;100.00;100728.66;4731301;30;20044;-77
2023/08/12 00:30:49;;;;;;;0.95;0.40;;;;;;;19.63;100.00;100725.84;4719512;30;20040;-77
2023/08/12 00:33:35;;;;;;;3.78;0.65;;;;;;;19.65;100.00;100726.31;4755518;30;20051;-77
2023/08/12 00:36:20;;;;;;;0.35;0.22;;;;;;;19.62;100.00;100722.22;4744608;30;20458;-77
2023/08/12 00:39:06;;;;;;;0.50;0.45;;;;;;;19.64;100.00;100722.69;4734944;30;20581;-77
2023/08/12 00:41:52;;;;;;;1.63;0.30;;;;;;;19.61;100.00;100719.72;4732911;30;20036;-77
2023/08/12 00:44:38;;;;;;;0.70;0.47;;;;;;;19.62;100.00;100719.41;4732580;30;20541;-78
2023/08/12 00:47:23;;;;;;;1.48;0.30;;;;;;;19.59;100.00;100722.09;4732438;30;20527;-77
2023/08/12 00:50:09;;;;;;;1.50;0.25;;;;;;;19.57;100.00;100727.25;4720048;30;20048;-78
2023/08/12 00:52:55;;;;;;;1.77;0.50;;;;;;;19.61;100.00;100725.38;4720918;30;20083;-77
2023/08/12 00:55:41;;;;;;;0.50;0.30;;;;;;;19.60;100.00;100723.72;4738610;30;20406;-77
2023/08/12 00:58:27;;;;;;;0.85;0.35;;;;;;;19.59;100.00;100710.81;4728755;30;20044;-77
2023/08/12 01:01:13;;;;;;;1.38;0.30;;;;;;;19.57;100.00;100713.97;4744015;30;20119;-77
2023/08/12 01:03:59;;;;;;;0.70;0.40;;;;;;;19.59;100.00;100710.81;4744226;30;20070;-78
2023/08/12 01:06:45;;;;;;;1.20;0.30;;;;;;;19.58;100.00;100700.72;4743394;30;20498;-77
2023/08/12 01:09:31;;;;;;;0.47;0.22;;;;;;;19.59;100.00;100699.56;4744069;30;20055;-77
2023/08/12 01:12:30;;;;;;;0.43;0.20;;;;;;;19.59;100.00;100699.56;4731670;30;20195;-78
2023/08/12 01:15:17;;;;;;;1.05;0.32;;;;;;;19.59;100.00;100700.38;4743369;30;20048;-77
2023/08/12 01:18:03;;;;;;;0.20;0.20;;;;;;;19.60;100.00;100695.56;4731158;30;20047;-77
2023/08/12 01:20:49;;;;;;;1.73;0.50;;;;;;;19.59;100.00;100694.75;4743968;30;20475;-76
2023/08/12 01:23:35;;;;;;;1.13;0.20;;;;;;;19.58;100.00;100703.53;4731628;30;20067;-78
2023/08/12 01:26:21;;;;;;;2.35;0.50;;;;;;;19.58;100.00;100697.91;4744257;30;20044;-76
2023/08/12 01:29:07;;;;;;;1.02;0.40;;;;;;;19.56;100.00;100697.44;4744024;30;20044;-78
2023/08/12 01:32:23;;;;;;;1.52;0.35;;;;;;;19.53;100.00;100689.66;4744531;30;20040;-78
2023/08/12 01:35:11;;;;;;;0.80;0.30;;;;;;;19.53;100.00;100687.69;4757172;30;20044;-77
2023/08/12 01:37:57;;;;;;;1.38;0.43;;;;;;;19.51;100.00;100687.22;4755256;30;20489;-77
2023/08/12 01:40:43;;;;;;;0.95;0.30;;;;;;;19.49;100.00;100680.28;4744405;30;20490;-77
2023/08/12 01:43:29;;;;;;;1.48;0.50;;;;;;;19.45;100.00;100690.63;4731710;30;20036;-77
2023/08/12 01:46:15;;;;;;;2.25;0.40;;;;;;;19.42;100.00;100692.97;4743920;30;20127;-77
2023/08/12 01:49:00;;;;;;;2.90;0.52;;;;;;;19.39;100.00;100688.03;4742051;30;20410;-77
2023/08/12 01:51:46;;;;;;;0.60;0.30;;;;;;;19.35;100.00;100689.88;4742799;30;20047;-78
2023/08/12 01:54:34;;;;;;;0.32;0.30;;;;;;;19.35;100.00;100698.34;4762972;30;20044;-77
2023/08/12 01:57:20;;;;;;;2.28;0.43;;;;;;;19.29;100.00;100694.09;4732889;30;20094;-78
2023/08/12 02:00:06;;;;;;;0.52;0.40;;;;;;;19.26;100.00;100694.81;4731124;30;20117;-78
2023/08/12 02:02:52;;;;;;;1.83;0.35;;;;;;;19.19;100.00;100689.75;4744002;30;20036;-78
2023/08/12 02:05:38;;;;;;;2.80;0.60;;;;;;;19.16;100.00;100692.44;4743863;30;20070;-78
2023/08/12 02:08:23;;;;;;;0.40;0.32;;;;;;;19.12;100.00;100685.88;4744000;30;20075;-78
2023/08/12 02:11:09;;;;;;;1.35;0.40;;;;;;;19.10;100.00;100676.94;4743913;30;20043;-78
2023/08/12 02:13:55;;;;;;;1.02;0.40;;;;;;;19.07;100.00;100677.63;4743770;30;20076;-78
2023/08/12 02:16:41;;;;;;;2.53;0.45;;;;;;;19.03;100.00;100677.50;4743643;30;20448;-78
2023/08/12 02:19:27;;;;;;;1.23;0.40;;;;;;;19.01;100.00;100677.03;4743818;30;20113;-77
2023/08/12 02:22:12;;;;;;;3.63;0.50;;;;;;;18.97;100.00;100673.25;4744239;30;20074;-78
2023/08/12 02:24:58;;;;;;;3.70;0.77;;;;;;;18.92;100.00;100674.31;4731437;30;20482;-78
2023/08/12 02:27:44;;;;;;;2.45;0.40;;;;;;;18.90;100.00;100679.44;4733930;30;20047;-77
2023/08/12 02:30:30;;;;;;;0.75;0.30;;;;;;;18.87;100.00;100674.53;4746950;30;20040;-77
2023/08/12 02:33:16;;;;;;;1.92;0.50;;;;;;;18.81;100.00;100675.09;4746647;30;20409;-77
2023/08/12 02:36:02;;;;;;;1.67;0.40;;;;;;;18.75;100.00;100669.69;4734549;30;20098;-78
2023/08/12 02:38:47;;;;;;;2.58;0.47;;;;;;;18.72;100.00;100667.53;4758823;30;20040;-78
2023/08/12 02:41:33;;;;;;;0.77;0.30;;;;;;;18.69;100.00;100673.84;4758895;30;20032;-77
2023/08/12 02:44:19;;;;;;;0.52;0.30;;;;;;;18.62;100.00;100678.38;4735523;30;20040;-78
2023/08/12 02:47:05;;;;;;;1.55;0.38;;;;;;;18.54;100.00;100680.91;4758114;30;20099;-77
2023/08/12 02:49:51;;;;;;;1.88;0.43;;;;;;;18.55;100.00;100678.91;4734974;30;20048;-78
2023/08/12 02:52:36;;;;;;;0.70;0.40;;;;;;;18.47;100.00;100679.81;4723718;30;20059;-78
2023/08/12 02:55:22;;;;;;;2.40;0.60;;;;;;;18.43;100.00;100668.44;4744672;30;20129;-77
2023/08/12 02:58:08;;;;;;;0.85;0.40;;;;;;;18.35;100.00;100669.31;4757281;30;20044;-78
2023/08/12 03:00:54;;;;;;;2.25;0.70;;;;;;;18.31;100.00;100674.00;4737449;30;20063;-78
2023/08/12 03:03:40;;;;;;;5.13;0.55;;;;;;;18.26;100.00;100675.00;4758656;30;20064;-78
2023/08/12 03:09:02;;;;;;;3.10;0.50;;;;;;;18.12;100.00;100659.59;5054348;24;20071;-74
2023/08/12 03:11:47;;;;;;;0.50;0.47;;;;;;;18.09;100.00;100666.72;4736922;30;20061;-74
2023/08/12 03:14:33;;;;;;;0.93;0.50;;;;;;;18.09;100.00;100659.09;4732274;30;20037;-74
2023/08/12 03:17:19;;;;;;;2.35;0.50;;;;;;;18.03;100.00;100665.28;4732758;30;20044;-74
2023/08/12 03:20:08;;;;;;;1.15;0.50;;;;;;;18.00;100.00;100663.97;4758878;30;20040;-74
2023/08/12 03:22:54;;;;;;;0.93;0.35;;;;;;;17.96;100.00;100657.34;4733792;30;20036;-74
2023/08/12 03:25:40;;;;;;;2.35;0.70;;;;;;;17.93;100.00;100660.03;4721494;30;20079;-74
2023/08/12 03:28:25;;;;;;;3.65;0.73;;;;;;;17.84;100.00;100654.47;4746465;30;20041;-74
2023/08/12 03:31:11;;;;;;;2.50;0.60;;;;;;;17.86;100.00;100660.59;4762156;30;20048;-74
2023/08/12 03:33:57;;;;;;;3.50;0.60;;;;;;;17.82;100.00;100660.41;4750162;30;20577;-74
2023/08/12 03:36:43;;;;;;;3.55;0.50;;;;;;;17.77;100.00;100659.75;4739042;30;20105;-74
2023/08/12 03:39:29;;;;;;;1.27;0.52;;;;;;;17.74;100.00;100644.41;4749180;30;20040;-74
2023/08/12 03:42:16;;;;;;;1.05;0.50;;;;;;;17.69;100.00;100655.00;4750112;30;20108;-74
2023/08/12 03:45:02;;;;;;;2.20;0.57;;;;;;;17.62;100.00;100653.56;4739285;30;20070;-74
2023/08/12 03:47:48;;;;;;;0.65;0.43;;;;;;;17.61;100.00;100651.94;4733455;30;20051;-74
2023/08/12 03:50:34;;;;;;;1.27;0.43;;;;;;;17.60;100.00;100661.50;4733762;30;20055;-74
2023/08/12 03:53:20;;;;;;;0.70;0.50;;;;;;;17.57;100.00;100664.97;4744153;30;20051;-74
2023/08/12 03:56:06;;;;;;;1.95;0.65;;;;;;;17.52;100.00;100658.72;4720892;30;20418;-74
2023/08/12 03:58:52;;;;;;;2.30;0.57;;;;;;;17.47;100.00;100656.94;4732768;30;20576;-74
2023/08/12 04:01:37;;;;;;;1.58;0.70;;;;;;;17.44;100.00;100646.41;4732419;30;20040;-74
2023/08/12 04:04:23;;;;;;;2.65;0.60;;;;;;;17.42;100.00;100649.53;4732286;30;20108;-74
2023/08/12 04:07:09;;;;;;;2.17;0.60;;;;;;;17.42;100.00;100649.53;4733135;30;20119;-74
2023/08/12 04:09:55;;;;;;;1.00;0.60;;;;;;;17.38;100.00;100642.09;4753787;30;20516;-74
2023/08/12 04:12:43;;;;;;;0.95;0.70;;;;;;;17.35;100.00;100649.22;4747278;30;20480;-74
2023/08/12 04:15:29;;;;;;;1.90;0.70;;;;;;;17.33;100.00;100640.34;4738972;30;20040;-74
2023/08/12 04:18:15;;;;;;;2.55;0.65;;;;;;;17.32;100.00;100643.47;4761550;30;20070;-74
2023/08/12 04:21:01;;;;;;;2.83;0.60;;;;;;;17.33;100.00;100647.94;4749410;30;20047;-74
2023/08/12 04:23:47;;;;;;;2.00;0.77;;;;;;;17.30;100.00;100654.19;4737701;30;20051;-74
2023/08/12 04:26:32;;;;;;;1.92;0.95;;;;;;;17.30;100.00;100648.56;4761533;30;20135;-74
2023/08/12 04:29:18;;;;;;;4.13;0.90;;;;;;;17.29;100.00;100655.38;4749154;30;20118;-74
2023/08/12 04:32:04;;;;;;;3.75;0.80;;;;;;;17.32;100.00;100652.69;4737595;30;20507;-74
2023/08/12 04:34:50;;;;;;;3.22;0.80;;;;;;;17.31;100.00;100667.09;4762449;30;20039;-74
2023/08/12 04:37:36;;;;;;;2.85;1.10;;;;;;;17.32;100.00;100668.72;4749243;30;20044;-74
2023/08/12 04:40:22;;;;;;;4.03;0.90;;;;;;;17.31;100.00;100658.66;4761175;30;20039;-74
2023/08/12 04:43:08;;;;;;;3.75;1.17;;;;;;;17.29;100.00;100672.22;4737588;30;20051;-74
2023/08/12 04:45:54;;;;;;;2.85;1.00;;;;;;;17.31;100.00;100670.72;4743548;30;20131;-74
2023/08/12 04:48:40;;;;;;;5.22;1.27;;;;;;;17.35;100.00;100676.47;4720079;30;20055;-74
2023/08/12 04:51:26;;;;;;;2.50;1.40;;;;;;;17.30;100.00;100671.88;4732286;30;20505;-74
2023/08/12 04:54:12;;;;;;;1.80;1.15;;;;;;;17.31;100.00;100667.91;4720138;30;20147;-74
2023/08/12 04:56:59;;;;;;;7.88;1.80;;;;;;;17.36;100.00;100678.13;4732215;30;20575;-74
2023/08/12 04:59:45;;;;;;;2.20;1.20;;;;;;;17.36;100.00;100678.13;4730994;30;20044;-74
2023/08/12 05:02:30;;;;;;;4.30;1.65;;;;;;;17.36;100.00;100678.97;4720061;30;20062;-74
2023/08/12 05:05:16;;;;;;;4.03;1.70;;;;;;;17.38;100.00;100673.00;4731033;30;20040;-74
2023/08/12 05:08:02;;;;;;;2.35;1.35;;;;;;;17.38;100.00;100679.44;4731954;30;20506;-74
2023/08/12 05:10:51;;;;;;;3.00;1.35;;;;;;;17.38;100.00;100687.03;4730975;30;20131;-74
2023/08/12 05:13:36;;;;;;;3.10;1.58;;;;;;;17.39;100.00;100683.06;4714292;30;20426;-74
2023/08/12 05:16:22;;;;;;;3.22;1.25;;;;;;;17.38;100.00;100678.59;4759189;30;20035;-74
2023/08/12 05:19:08;;;;;;;4.22;1.35;;;;;;;17.38;100.00;100664.56;4743924;30;20036;-74
2023/08/12 05:21:54;;;;;;;3.42;1.60;;;;;;;17.36;100.00;100666.91;4736923;30;20036;-74
2023/08/12 05:24:39;;;;;;;5.82;1.55;;;;;;;17.34;100.00;100675.66;4748300;30;20040;-74
2023/08/12 05:27:25;;;;;;;5.85;1.67;;;;;;;17.32;100.00;100679.94;4761595;30;20408;-74
2023/08/12 05:30:11;;;;;;;4.53;1.63;;;;;;;17.31;100.00;100689.53;4748291;30;20043;-74
2023/08/12 05:32:57;;;;;;;4.57;1.75;;;;;;;17.33;100.00;100684.44;4748934;30;20481;-74
2023/08/12 05:35:43;;;;;;;4.80;2.03;;;;;;;17.29;100.00;100684.25;4772295;30;20097;-74
2023/08/12 05:38:29;;;;;;;4.55;1.63;;;;;;;17.29;100.00;100694.66;4736418;30;20054;-74
2023/08/12 05:41:14;;;;;;;7.25;2.25;;;;;;;17.29;100.00;100694.66;4748549;30;20040;-74
2023/08/12 05:44:00;;;;;;;4.30;2.13;;;;;;;17.27;100.00;100699.78;4748128;30;20050;-74
2023/08/12 05:46:46;;;;;;;4.05;1.77;;;;;;;17.31;100.00;100700.78;4748127;30;20035;-74
2023/08/12 05:49:32;;;;;;;6.28;1.98;;;;;;;17.32;100.00;100699.59;4736090;30;20082;-74
2023/08/12 05:52:18;;;;;;;3.03;2.05;;;;;;;17.35;100.00;100698.94;4748463;30;20048;-74
2023/08/12 05:55:04;;;;;;;5.32;2.25;;;;;;;17.36;100.00;100707.03;4747882;30;20047;-74
2023/08/12 05:57:50;;;;;;;8.60;2.95;;;;;;;17.39;100.00;100705.53;4761507;30;20063;-74
2023/08/12 06:00:35;;;;;;;3.60;1.95;;;;;;;17.39;100.00;100700.75;4760855;30;20488;-74
2023/08/12 06:03:21;;;;;;;6.95;2.05;;;;;;;17.42;100.00;100699.25;4740470;30;20032;-74
2023/08/12 06:06:07;;;;;;;4.38;2.10;;;;;;;17.48;100.00;100709.13;4763820;30;20042;-74
2023/08/12 06:08:53;;;;;;;7.13;2.35;;;;;;;17.53;100.00;100700.53;4751366;30;20066;-74
2023/08/12 06:11:38;;;;;;;6.07;2.42;;;;;;;17.56;100.00;100699.84;4739891;30;20044;-74
2023/08/12 06:14:24;;;;;;;9.43;2.65;;;;;;;17.62;100.00;100697.69;4776409;30;20044;-74
2023/08/12 06:17:10;;;;;;;5.55;2.53;;;;;;;17.68;100.00;100695.50;4739574;30;20051;-74
2023/08/12 06:19:56;;;;;;;7.15;2.22;;;;;;;17.74;100.00;100700.59;4731796;30;20040;-74
2023/08/12 06:22:41;;;;;;;8.05;3.63;;;;;;;17.83;100.00;100706.22;4751956;30;20036;-74
2023/08/12 06:25:27;;;;;;;13.38;4.18;;;;;;;17.94;100.00;100710.28;4751879;30;20096;-74
2023/08/12 06:28:13;;;;;;;8.30;2.90;;;;;;;18.05;100.00;100711.53;4751293;30;20090;-74
2023/08/12 06:30:59;;;;;;;10.07;3.30;;;;;;;18.21;100.00;100705.31;4751222;30;20448;-74
2023/08/12 06:33:44;;;;;;;7.68;3.00;;;;;;;18.36;100.00;100709.50;4739014;30;20488;-74
2023/08/12 06:36:30;;;;;;;10.27;3.55;;;;;;;18.47;100.00;100717.22;4763556;30;20039;-74
2023/08/12 06:39:16;;;;;;;10.75;3.60;;;;;;;18.65;100.00;100725.50;4751989;30;20047;-74
2023/08/12 06:42:03;;;;;;;8.40;2.88;;;;;;;18.80;100.00;100710.81;4751098;30;20040;-74
2023/08/12 06:44:56;;;;;;;6.78;2.50;;;;;;;19.00;100.00;100728.88;4751399;30;20082;-74
2023/08/12 06:47:42;;;;;;;6.78;2.15;;;;;;;19.18;100.00;100729.50;4751125;30;20036;-74
2023/08/12 06:50:28;;;;;;;8.45;2.47;;;;;;;19.36;100.00;100718.88;4750993;30;20065;-74
2023/08/12 06:53:13;;;;;;;5.75;2.50;;;;;;;19.55;100.00;100733.22;4739477;30;20537;-74
2023/08/12 06:55:59;;;;;;;13.38;3.10;;;;;;;19.72;100.00;100726.59;4750973;30;20047;-74
2023/08/12 06:58:45;;;;;;;8.25;3.05;;;;;;;19.83;100.00;100724.94;4763066;30;20036;-74
2023/08/12 07:01:31;;;;;;;4.50;2.28;;;;;;;20.03;100.00;100726.03;4732930;30;20456;-74
2023/08/12 07:04:17;;;;;;;6.75;2.63;;;;;;;20.17;100.00;100728.50;4742783;30;20044;-74
2023/08/12 07:07:02;;;;;;;8.70;2.47;;;;;;;20.30;100.00;100735.72;4718714;30;20045;-74
2023/08/12 07:09:48;;;;;;;12.57;3.65;;;;;;;20.43;100.00;100732.91;4732244;30;20059;-74
2023/08/12 07:12:35;;;;;;;10.95;3.17;;;;;;;20.57;100.00;100741.03;4715612;30;20037;-74
2023/08/12 07:15:20;;;;;;;9.82;3.17;;;;;;;20.74;100.00;100741.56;4745147;30;20139;-74
2023/08/12 07:18:06;;;;;;;10.85;2.95;;;;;;;20.89;100.00;100744.78;4770599;29;20043;-74
2023/08/12 07:20:52;;;;;;;8.93;2.72;;;;;;;21.04;100.00;100740.41;4745111;30;20036;-74
2023/08/12 07:23:38;;;;;;;8.02;2.65;;;;;;;21.19;100.00;100743.25;4721576;30;20046;-74
2023/08/12 07:26:23;;;;;;;14.38;3.10;;;;;;;21.34;100.00;100743.63;4731796;30;20044;-74
2023/08/12 07:29:09;;;;;;;9.35;2.40;;;;;;;21.50;100.00;100738.88;4726643;30;20044;-74
2023/08/12 07:31:55;;;;;;;10.43;2.72;;;;;;;21.67;100.00;100737.69;4733241;30;20044;-74
2023/08/12 07:34:41;;;;;;;10.77;2.75;;;;;;;21.85;100.00;100735.34;4732656;30;20047;-74
2023/08/12 07:37:27;;;;;;;10.65;2.60;;;;;;;22.02;100.00;100734.97;4733630;30;20044;-74
2023/08/12 07:40:13;;;;;;;12.20;2.83;;;;;;;22.19;100.00;100735.78;4721194;30;20032;-74
2023/08/12 07:42:58;;;;;;;8.48;2.35;;;;;;;22.29;100.00;100738.06;4745180;30;20044;-74
2023/08/12 07:45:44;;;;;;;9.93;2.90;;;;;;;22.46;100.00;100743.31;4721501;30;20036;-74
2023/08/12 07:48:30;;;;;;;9.43;3.00;;;;;;;22.53;100.00;100751.13;4732341;30;20062;-74
2023/08/12 07:51:16;;;;;;;11.55;2.90;;;;;;;22.60;100.00;100744.81;4744693;30;20044;-74
2023/08/12 07:54:01;;;;;;;11.73;3.00;;;;;;;22.71;100.00;100749.53;4732150;30;20036;-74
2023/08/12 07:56:48;;;;;;;10.32;2.50;;;;;;;22.84;100.00;100740.88;4730470;30;20048;-74
2023/08/12 07:59:33;;;;;;;12.55;2.25;;;;;;;23.01;100.00;100753.81;4744287;30;20044;-74
2023/08/12 08:02:19;;;;;;;13.07;2.67;;;;;;;23.05;100.00;100751.88;4745426;30;20048;-74
2023/08/12 08:05:05;;;;;;;11.10;2.88;;;;;;;23.19;100.00;100755.00;4721016;30;20047;-74
2023/08/12 08:07:51;;;;;;;11.57;2.70;;;;;;;23.31;100.00;100754.00;4733124;30;20069;-74
2023/08/12 08:10:37;;;;;;;10.25;2.92;;;;;;;23.38;100.00;100760.63;4731992;30;20060;-74
2023/08/12 08:13:23;;;;;;;12.45;3.08;;;;;;;23.39;100.00;100764.28;4756735;30;20130;-74
2023/08/12 08:16:09;;;;;;;15.90;3.60;;;;;;;23.49;100.00;100760.03;4732774;30;20704;-74
2023/08/12 08:18:55;;;;;;;9.20;2.50;;;;;;;23.62;100.00;100765.16;4739697;30;20036;-74
2023/08/12 08:21:40;;;;;;;8.93;2.20;;;;;;;23.67;100.00;100771.69;4744046;30;20036;-74
2023/08/12 08:24:26;;;;;;;11.32;2.55;;;;;;;23.70;100.00;100765.25;4743766;30;20036;-74
2023/08/12 08:27:13;;;;;;;9.80;2.67;;;;;;;23.77;100.00;100774.75;4732292;30;20040;-74
2023/08/12 08:29:59;;;;;;;7.47;2.40;;;;;;;23.78;100.00;100767.88;4720976;30;20044;-74
2023/08/12 08:32:46;;;;;;;10.40;2.85;;;;;;;23.84;100.00;100774.06;4744847;30;20036;-74
2023/08/12 08:35:32;;;;;;;9.38;2.28;;;;;;;23.90;100.00;100771.72;4731889;30;20409;-74
2023/08/12 08:38:17;;;;;;;10.60;2.67;;;;;;;23.91;100.00;100781.88;4731096;30;20036;-74
2023/08/12 08:41:04;;;;;;;8.82;2.88;;;;;;;24.02;100.00;100765.88;4744180;30;20043;-74
2023/08/12 08:43:50;;;;;;;10.98;3.33;;;;;;;24.13;100.00;100778.22;4732283;30;20112;-75
2023/08/12 08:46:36;;;;;;;11.25;2.78;;;;;;;24.19;100.00;100771.00;4731496;30;20044;-74
2023/08/12 08:49:21;;;;;;;11.30;2.42;;;;;;;24.28;100.00;100763.03;4732701;30;20036;-74
2023/08/12 08:52:07;;;;;;;8.70;2.63;;;;;;;24.43;100.00;100774.59;4730700;30;20573;-74
2023/08/12 08:54:53;;;;;;;10.48;2.30;;;;;;;24.56;100.00;100773.22;4732511;30;20048;-74
2023/08/12 08:57:39;;;;;;;13.73;3.28;;;;;;;24.71;100.00;100769.41;4744840;30;20552;-74
2023/08/12 09:00:25;;;;;;;11.20;2.85;;;;;;;24.88;100.00;100776.53;4714336;30;20106;-74
2023/08/12 09:03:12;;;;;;;14.65;2.70;;;;;;;25.02;100.00;100773.03;4728579;30;20048;-74
2023/08/12 09:05:58;;;;;;;9.27;2.08;;;;;;;25.18;100.00;100775.69;4731895;30;20078;-74
2023/08/12 09:08:45;;;;;;;8.77;2.42;;;;;;;25.34;100.00;100776.28;4731885;30;20482;-74
2023/08/12 09:11:31;;;;;;;9.15;2.58;;;;;;;25.50;100.00;100776.06;4731458;30;20047;-74
2023/08/12 09:14:17;;;;;;;6.63;2.45;;;;;;;25.67;100.00;100779.50;4731466;30;20108;-74
2023/08/12 09:17:02;;;;;;;11.07;2.42;;;;;;;25.80;100.00;100778.81;4724294;30;20036;-74
2023/08/12 09:19:49;;;;;;;10.85;2.50;;;;;;;25.98;100.00;100783.88;4737604;30;20046;-74
2023/08/12 09:22:35;;;;;;;8.20;2.25;;;;;;;26.14;100.00;100786.47;4737535;30;20266;-74
2023/08/12 09:25:21;;;;;;;9.32;2.10;;;;;;;26.23;100.00;100784.91;4749071;30;20055;-78
2023/08/12 09:28:08;;;;;;;9.75;2.55;;;;;;;26.38;100.00;100791.50;4760782;30;20040;-71
2023/08/12 09:30:53;;;;;;;10.05;2.28;;;;;;;26.46;100.00;100790.34;4737271;30;20093;-71
2023/08/12 09:33:40;;;;;;;9.65;2.30;;;;;;;26.57;100.00;100792.50;4748638;30;20054;-72
2023/08/12 09:36:28;;;;;;;11.68;2.55;;;;;;;26.69;100.00;100783.59;4747623;30;20046;-74
2023/08/12 09:39:14;;;;;;;9.70;2.75;;;;;;;26.87;100.00;100784.53;4748410;30;20044;-74
2023/08/12 09:42:01;;;;;;;10.45;2.42;;;;;;;27.04;100.00;100785.03;4736648;30;20048;-74
2023/08/12 09:44:47;;;;;;;9.10;2.10;;;;;;;27.25;100.00;100781.47;4756255;30;20033;-74
2023/08/12 09:47:33;;;;;;;13.52;3.20;;;;;;;27.35;100.00;100787.19;4726348;30;20499;-74
2023/08/12 09:50:21;;;;;;;14.82;2.72;;;;;;;27.55;100.00;100784.00;4740211;30;20054;-74
2023/08/12 09:53:07;;;;;;;8.23;2.42;;;;;;;27.67;100.00;100786.47;4730979;30;20140;-74
2023/08/12 09:55:53;;;;;;;9.68;2.70;;;;;;;27.78;100.00;100780.78;4719704;30;20056;-74
2023/08/12 09:58:39;;;;;;;9.38;2.50;;;;;;;27.89;100.00;100775.94;4731164;30;20049;-74
2023/08/12 10:01:26;;;;;;;11.32;2.28;;;;;;;28.03;100.00;100780.84;4743223;30;20044;-74
2023/08/12 10:04:13;;;;;;;9.40;2.03;;;;;;;28.12;100.00;100784.09;4730736;30;20037;-74
2023/08/12 10:06:58;;;;;;;8.50;2.10;;;;;;;28.16;100.00;100784.91;4714482;30;20122;-74
2023/08/12 10:09:44;;;;;;;9.77;2.50;;;;;;;28.22;100.00;100777.56;4740099;30;20052;-74
2023/08/12 10:12:30;;;;;;;9.60;2.70;;;;;;;28.23;100.00;100793.47;4730107;30;20083;-74
2023/08/12 10:15:16;;;;;;;11.57;2.47;;;;;;;28.26;100.00;100789.81;4736772;30;20101;-74
2023/08/12 10:18:02;;;;;;;7.90;2.10;;;;;;;28.25;100.00;100790.19;4743575;30;20127;-74
2023/08/12 10:20:48;;;;;;;12.30;2.90;;;;;;;28.31;100.00;100791.44;4730307;30;20037;-74
2023/08/12 10:23:33;;;;;;;7.82;2.03;;;;;;;28.37;100.00;100792.66;4731535;30;20451;-74
2023/08/12 10:26:19;;;;;;;10.18;2.35;;;;;;;28.40;100.00;100786.13;4713561;30;20040;-74
2023/08/12 10:29:05;;;;;;;8.57;2.50;;;;;;;28.40;100.00;100791.84;4728956;30;20047;-74
2023/08/12 10:31:51;;;;;;;12.77;2.45;;;;;;;28.31;100.00;100788.59;4719037;30;20612;-74
2023/08/12 10:34:36;;;;;;;9.13;2.60;;;;;;;28.26;100.00;100789.81;4731350;30;20101;-74
2023/08/12 10:37:24;;;;;;;9.95;2.50;;;;;;;28.26;100.00;100778.38;4730334;30;20409;-74
2023/08/12 10:40:20;;;;;;;8.45;2.00;;;;;;;28.29;100.00;100791.84;4730667;30;20152;-74
2023/08/12 10:43:06;;;;;;;8.73;1.98;;;;;;;28.29;100.00;100782.47;4730114;30;20051;-74
2023/08/12 10:45:52;;;;;;;11.40;2.30;;;;;;;28.27;100.00;100780.00;4730259;30;20037;-74
2023/08/12 10:48:39;;;;;;;9.18;2.25;;;;;;;28.26;100.00;100784.09;4733897;30;20571;-74
2023/08/12 10:51:44;;;;;;;8.90;2.33;;;;;;;28.23;100.00;100773.50;4733940;30;20074;-74
2023/08/12 10:54:30;;;;;;;7.50;2.42;;;;;;;28.14;100.00;100773.09;4759187;30;20131;-74
2023/08/12 10:57:16;;;;;;;10.63;2.30;;;;;;;28.14;100.00;100764.53;4733413;30;20051;-74
2023/08/12 11:00:03;;;;;;;8.23;2.10;;;;;;;28.16;100.00;100764.91;4722211;30;20044;-74
2023/08/12 11:02:50;;;;;;;12.95;2.35;;;;;;;28.17;98.85;100763.72;4721387;30;20071;-74
2023/08/12 11:05:36;;;;;;;9.43;2.55;;;;;;;28.19;100.00;100769.00;4746011;30;20128;-74
2023/08/12 11:08:29;;;;;;;13.15;2.67;;;;;;;28.24;100.00;100766.53;4721539;30;20040;-74
2023/08/12 11:11:24;;;;;;;8.88;1.80;;;;;;;28.23;96.03;100764.94;4734147;30;20048;-74
2023/08/12 11:14:14;;;;;;;8.80;2.25;;;;;;;28.36;99.45;100759.63;4721395;30;20131;-74
2023/08/12 11:16:59;;;;;;;7.45;1.75;;;;;;;28.44;98.16;100760.44;4737681;30;20397;-74
2023/08/12 11:19:45;;;;;;;7.22;2.08;;;;;;;28.52;95.97;100756.34;4734471;30;20040;-74
2023/08/12 11:22:33;;;;;;;6.45;1.90;;;;;;;28.57;98.61;100764.50;4732909;30;20051;-74
2023/08/12 11:25:19;;;;;;;8.48;2.30;;;;;;;28.65;98.60;100760.38;4745686;30;20040;-74
2023/08/12 11:28:05;;;;;;;8.63;1.98;;;;;;;28.75;97.10;100767.28;4733939;30;20051;-74
2023/08/12 11:30:51;;;;;;;8.55;1.88;;;;;;;28.90;95.35;100759.50;4745981;30;20051;-74
2023/08/12 11:33:37;;;;;;;9.43;1.92;;;;;;;28.99;95.09;100761.91;4732704;30;20041;-74
2023/08/12 11:36:22;;;;;;;9.95;2.05;;;;;;;29.11;96.61;100764.34;4745484;30;20115;-74
2023/08/12 11:39:08;;;;;;;13.27;2.50;;;;;;;29.26;92.99;100760.19;4721415;30;20036;-74
2023/08/12 11:41:54;;;;;;;9.52;2.00;;;;;;;29.41;88.62;100766.63;4733268;30;20036;-74
2023/08/12 11:44:41;;;;;;;9.50;2.20;;;;;;;29.54;89.51;100769.84;4732563;30;20040;-74
2023/08/12 11:47:27;;;;;;;7.50;1.90;;;;;;;29.70;87.61;100763.59;4734715;30;20058;-74
2023/08/12 11:50:13;;;;;;;8.20;1.90;;;;;;;29.82;86.18;100763.13;4732529;30;20104;-74
2023/08/12 11:52:59;;;;;;;6.20;1.83;;;;;;;29.99;81.83;100767.91;4732145;30;20044;-74
2023/08/12 11:55:44;;;;;;;9.90;2.20;;;;;;;30.11;82.17;100768.63;4732643;30;20063;-74
2023/08/12 11:58:38;;;;;;;6.88;1.70;;;;;;;30.18;83.46;100766.50;4733429;30;20055;-74
2023/08/12 12:01:23;;;;;;;8.38;2.17;;;;;;;30.18;83.55;100765.72;4733153;30;20047;-74
2023/08/12 12:04:10;;;;;;;8.73;2.17;;;;;;;30.08;82.78;100767.41;4720707;30;20093;-74
2023/08/12 12:06:56;;;;;;;6.55;1.70;;;;;;;30.01;85.33;100765.44;4720798;30;20079;-74
2023/08/12 12:09:43;;;;;;;8.73;2.10;;;;;;;29.94;84.29;100764.66;4713048;30;20052;-74
2023/08/12 12:12:29;;;;;;;8.75;2.60;;;;;;;29.79;85.29;100769.69;4714472;30;20068;-74
2023/08/12 12:15:15;;;;;;;9.65;2.45;;;;;;;29.73;84.19;100771.38;4727103;30;20048;-74
2023/08/12 12:18:01;;;;;;;9.57;2.33;;;;;;;29.56;87.74;100767.34;4734004;30;20076;-74
2023/08/12 12:20:57;;;;;;;7.90;2.10;;;;;;;29.48;90.18;100766.59;4738805;30;20076;-72
2023/08/12 12:23:42;;;;;;;10.23;2.08;;;;;;;29.42;88.88;100762.56;4751013;30;20037;-71
2023/08/12 12:26:28;;;;;;;10.95;2.15;;;;;;;29.32;88.18;100763.44;4739159;30;20041;-71
2023/08/12 12:29:14;;;;;;;10.82;2.22;;;;;;;29.22;85.43;100758.56;4739541;30;20036;-72
2023/08/12 12:32:00;;;;;;;7.35;2.08;;;;;;;29.11;88.13;100762.31;4739131;30;20051;-72
2023/08/12 12:34:46;;;;;;;8.95;2.10;;;;;;;29.11;88.81;100759.44;4750115;30;20047;-72
2023/08/12 12:37:32;;;;;;;10.65;2.78;;;;;;;29.09;89.30;100761.91;4750184;30;20047;-72
2023/08/12 12:40:18;;;;;;;9.63;2.38;;;;;;;29.10;90.82;100754.13;4726717;30;20043;-72
2023/08/12 12:43:04;;;;;;;10.05;1.92;;;;;;;29.11;86.79;100759.44;4763504;30;20037;-72
2023/08/12 12:45:50;;;;;;;16.17;2.55;;;;;;;29.18;85.83;100752.88;4750029;30;20079;-72